Cameron, South Carolina
Current Conditions -  °F | °C
As of 3:53 PM on Saturday 25 Oct 2014 (Local Time) from KOGB Reporting Station
Clear Clear  
Wind Chill: 75°   Ceiling: Unl
Heat Index: 75°   Visibility: 10mi
Dew Point: 39°   Wind: 5mph
Humidity: 27%   Direction: 330°NNW
Pressure: 29.96"   Gusts: NA
Location:  33.56°N, 80.71°W
Report Text: KOGB 251953Z AUTO 33004KT 10SM CLR 24/04 A2996 RMK AO2 SLP144 T02390039
Loading
Personal Weather Stations






























Interactive Weather Map
Tropical Storm Tracking
New forecast layout! Learn more

10-Day Weather Forecast

Advertisements
Track Severe Weather on mobile